KSGH/SGH METAR and TAF weather

Enter ICAO airport designator
Station Type Date Time Source
KSGH METAR 2019/05/25 14:56 UTC NOAA

KSGH 251456Z AUTO 24016G20KT 10SM BKN085 27/21 A3006 RMK AO2 SLP173 T02720211 58005


Station Type Date Time Source
KSGH Decoded METAR 2019/05/25 14:56 UTC NOAA

Springfield, Springfield-Beckley Municipal Airport, OH, United States (KSGH) 39-50-25N 083-50-24W
May 25, 2019 - 10:56 AM EDT / 2019.05.25 1456 UTC
Wind: from the WSW (240 degrees) at 18 MPH (16 KT) gusting to 23 MPH (20 KT):0
Visibility: 10 mile(s):0
Sky conditions: mostly cloudy
Temperature: 81.0 F (27.2 C)
Dew Point: 70.0 F (21.1 C)
Relative Humidity: 69%
Pressure (altimeter): 30.06 in. Hg (1017 hPa)
Pressure tendency: 0.01 inches (0.5 hPa) lower than three hours ago
ob: KSGH 251456Z AUTO 24016G20KT 10SM BKN085 27/21 A3006 RMK AO2 SLP173 T02720211 58005
cycle: 15

Station Type Date Time Source
KSGH TAF UTC NOAA

Error!

Example: see airport list